Time;durP1;ratioP1;P1;durP2;ratioP2;P2;SDS_P1;SDS_P2;PMS_P1;PMS_P2;Temp;Humidity;BMP_temperature;BMP_pressure;BME280_temperature;BME280_humidity;BME280_pressure;Samples;Min_cycle;Max_cycle;Signal;HPM_P1;HPM_P2
2023/10/06 00:02:08;;;;;;;20.90;9.30;;;11.80;99.90;;;;;;4971020;28;20400;-74
2023/10/06 00:04:38;;;;;;;16.35;9.13;;;11.80;99.90;;;;;;4971342;28;20400;-76
2023/10/06 00:07:07;;;;;;;20.33;8.80;;;11.80;99.90;;;;;;4971293;28;20412;-75
2023/10/06 00:09:33;;;;;;;20.02;9.82;;;11.80;99.90;;;;;;4971303;28;20408;-75
2023/10/06 00:11:59;;;;;;;26.77;9.02;;;11.80;99.90;;;;;;4972076;28;20392;-76
2023/10/06 00:14:43;;;;;;;18.42;8.70;;;11.80;99.90;;;;;;4975305;28;20424;-75
2023/10/06 00:17:17;;;;;;;19.52;8.48;;;11.80;99.90;;;;;;4974776;28;20443;-75
2023/10/06 00:19:44;;;;;;;15.80;7.90;;;11.70;99.90;;;;;;4974672;28;20759;-76
2023/10/06 00:24:44;;;;;;;23.25;9.00;;;11.70;99.90;;;;;;4975452;28;20411;-76
2023/10/06 00:27:13;;;;;;;21.70;8.93;;;11.70;99.90;;;;;;4975389;28;20450;-75
2023/10/06 00:29:53;;;;;;;17.25;8.57;;;11.70;99.90;;;;;;4975908;28;20404;-76
2023/10/06 00:32:22;;;;;;;19.55;8.10;;;11.70;99.90;;;;;;4974812;28;20829;-75
2023/10/06 00:35:11;;;;;;;26.95;9.02;;;11.70;99.90;;;;;;4974058;28;20388;-75
2023/10/06 00:37:38;;;;;;;29.30;8.90;;;11.70;99.90;;;;;;4974777;28;20462;-75
2023/10/06 00:40:27;;;;;;;19.25;9.20;;;11.70;99.90;;;;;;4974409;28;20910;-75
2023/10/06 00:42:56;;;;;;;19.85;9.10;;;11.70;99.90;;;;;;4974116;28;20403;-74
2023/10/06 00:45:24;;;;;;;18.70;9.07;;;11.70;99.90;;;;;;4974467;28;20480;-74
2023/10/06 00:47:53;;;;;;;17.92;9.10;;;11.70;99.90;;;;;;4974039;28;20415;-73
2023/10/06 00:50:22;;;;;;;20.90;9.25;;;11.70;99.90;;;;;;4974888;28;20396;-75
2023/10/06 00:52:48;;;;;;;19.17;8.65;;;11.70;99.90;;;;;;4974899;28;20396;-75
2023/10/06 00:55:14;;;;;;;18.63;9.02;;;11.70;99.90;;;;;;4974469;28;20388;-76
2023/10/06 00:57:52;;;;;;;16.77;9.43;;;11.70;99.90;;;;;;4974317;28;20875;-75
2023/10/06 01:00:22;;;;;;;15.52;9.30;;;11.70;99.90;;;;;;4974656;28;20394;-76
2023/10/06 01:02:49;;;;;;;22.52;9.23;;;11.70;99.90;;;;;;4974516;28;20395;-75
2023/10/06 01:05:16;;;;;;;24.67;9.30;;;11.60;99.90;;;;;;4975352;28;20458;-74
2023/10/06 01:07:45;;;;;;;19.98;9.80;;;11.70;99.90;;;;;;4974582;28;20419;-75
2023/10/06 01:10:27;;;;;;;20.92;8.82;;;11.70;99.90;;;;;;4973510;28;20407;-75
2023/10/06 01:12:54;;;;;;;16.58;9.00;;;11.70;99.90;;;;;;4972973;28;20384;-75
2023/10/06 01:15:20;;;;;;;20.15;9.38;;;11.70;99.90;;;;;;4974209;28;20763;-75
2023/10/06 01:17:47;;;;;;;21.90;8.82;;;11.60;99.90;;;;;;4973848;28;20432;-74
2023/10/06 01:20:33;;;;;;;23.20;9.43;;;11.70;99.90;;;;;;4974416;28;20787;-75
2023/10/06 01:23:00;;;;;;;23.50;10.07;;;11.60;99.90;;;;;;4972651;28;20402;-75
2023/10/06 01:25:25;;;;;;;24.30;9.43;;;11.60;99.90;;;;;;4973406;28;20388;-75
2023/10/06 01:27:51;;;;;;;19.60;9.17;;;11.60;99.90;;;;;;4972291;28;20989;-75
2023/10/06 01:30:18;;;;;;;17.83;9.70;;;11.60;99.90;;;;;;4973661;28;20755;-74
2023/10/06 01:32:45;;;;;;;21.63;9.00;;;11.60;99.90;;;;;;4973393;28;20384;-75
2023/10/06 01:35:13;;;;;;;21.77;11.65;;;11.60;99.90;;;;;;4973685;28;20388;-75
2023/10/06 01:37:43;;;;;;;17.92;9.07;;;11.60;99.90;;;;;;4973472;28;20400;-74
2023/10/06 01:42:50;;;;;;;17.75;8.88;;;11.60;99.90;;;;;;4973610;28;20400;-75
2023/10/06 01:45:19;;;;;;;18.42;9.43;;;11.60;99.90;;;;;;4973644;28;20392;-75
2023/10/06 01:47:45;;;;;;;17.85;9.20;;;11.50;99.90;;;;;;4974368;28;20631;-75
2023/10/06 01:50:11;;;;;;;16.00;9.20;;;11.60;99.90;;;;;;4977068;28;20417;-73
2023/10/06 01:52:40;;;;;;;16.67;8.73;;;11.60;99.90;;;;;;4979547;28;20760;-73
2023/10/06 01:55:09;;;;;;;16.48;9.77;;;11.50;99.90;;;;;;4978661;28;20399;-74
2023/10/06 01:57:34;;;;;;;16.50;8.60;;;11.50;99.90;;;;;;4973605;28;20431;-75
2023/10/06 02:00:00;;;;;;;17.30;8.30;;;11.50;99.90;;;;;;4973340;28;20415;-75
2023/10/06 02:02:27;;;;;;;18.83;7.97;;;11.50;99.90;;;;;;4972916;28;20392;-75
2023/10/06 02:04:56;;;;;;;22.30;8.73;;;11.50;99.90;;;;;;4973360;28;20400;-75
2023/10/06 02:07:22;;;;;;;14.23;8.20;;;11.60;99.90;;;;;;4973017;28;20415;-75
2023/10/06 02:09:49;;;;;;;19.90;9.20;;;11.50;99.90;;;;;;4972871;28;20404;-76
2023/10/06 02:12:15;;;;;;;21.50;8.60;;;11.40;99.90;;;;;;4973106;28;20419;-75
2023/10/06 02:14:41;;;;;;;17.83;8.98;;;11.40;99.90;;;;;;4973642;28;20558;-73
2023/10/06 02:17:08;;;;;;;22.05;9.02;;;11.50;99.90;;;;;;4977192;28;20388;-75
2023/10/06 02:19:34;;;;;;;15.53;9.00;;;11.50;99.90;;;;;;4976163;28;20410;-75
2023/10/06 02:22:00;;;;;;;17.63;8.25;;;11.50;99.90;;;;;;4975706;28;20384;-75
2023/10/06 02:24:26;;;;;;;17.80;8.77;;;11.50;99.90;;;;;;4974336;28;20450;-76
2023/10/06 02:26:59;;;;;;;18.53;9.87;;;11.50;99.90;;;;;;4973846;28;20416;-74
2023/10/06 02:29:26;;;;;;;18.40;8.80;;;11.50;99.90;;;;;;4971771;28;20404;-76
2023/10/06 02:32:00;;;;;;;21.33;8.77;;;11.50;99.90;;;;;;4972529;28;20455;-76
2023/10/06 02:34:29;;;;;;;14.03;8.97;;;11.40;99.90;;;;;;4971772;28;20471;-76
2023/10/06 02:37:00;;;;;;;17.98;8.93;;;11.40;99.90;;;;;;4971986;28;20423;-76
2023/10/06 02:39:33;;;;;;;18.77;8.70;;;11.40;99.90;;;;;;4972983;28;20450;-76
2023/10/06 02:42:01;;;;;;;22.75;8.85;;;11.30;99.90;;;;;;4972533;28;20397;-76
2023/10/06 02:44:29;;;;;;;24.02;8.98;;;11.30;99.90;;;;;;4972946;28;20400;-77
2023/10/06 02:46:55;;;;;;;15.50;9.13;;;11.30;99.90;;;;;;4972693;28;20412;-76
2023/10/06 02:49:35;;;;;;;20.75;8.95;;;11.30;99.90;;;;;;4972599;28;20384;-76
2023/10/06 02:52:21;;;;;;;20.58;9.55;;;11.30;99.90;;;;;;4972110;28;20388;-75
2023/10/06 02:54:57;;;;;;;19.50;9.20;;;11.30;99.90;;;;;;4973696;28;20739;-75
2023/10/06 02:57:22;;;;;;;22.40;9.98;;;11.30;99.90;;;;;;4972940;28;20388;-75
2023/10/06 02:59:48;;;;;;;16.20;9.27;;;11.20;99.90;;;;;;4972695;28;20449;-75
2023/10/06 03:02:17;;;;;;;16.13;9.63;;;11.20;99.90;;;;;;4972539;28;20905;-76
2023/10/06 03:04:54;;;;;;;19.83;9.70;;;11.20;99.90;;;;;;4972778;28;20392;-76
2023/10/06 03:07:22;;;;;;;23.25;10.20;;;11.10;99.90;;;;;;4972569;28;20594;-76
2023/10/06 03:09:48;;;;;;;17.20;10.40;;;11.10;99.90;;;;;;4974134;28;20405;-75
2023/10/06 03:14:40;;;;;;;20.70;9.23;;;11.20;99.90;;;;;;4974409;28;20398;-75
2023/10/06 03:17:08;;;;;;;16.98;9.32;;;11.20;99.90;;;;;;4973904;28;20450;-75
2023/10/06 03:19:43;;;;;;;19.25;8.98;;;11.10;99.90;;;;;;4974073;28;20399;-75
2023/10/06 03:22:13;;;;;;;21.42;9.80;;;11.10;99.90;;;;;;4973641;28;20403;-75
2023/10/06 03:24:58;;;;;;;18.30;9.10;;;11.10;99.90;;;;;;4974901;28;20487;-75
2023/10/06 03:27:25;;;;;;;20.02;9.88;;;11.10;99.90;;;;;;4977219;28;20409;-75
2023/10/06 03:29:55;;;;;;;16.30;9.23;;;11.10;99.90;;;;;;4980961;28;20388;-75
2023/10/06 03:32:28;;;;;;;22.25;9.63;;;11.10;99.90;;;;;;4983399;28;20438;-75
2023/10/06 03:34:57;;;;;;;29.15;10.05;;;11.10;99.90;;;;;;4983830;28;20388;-75
2023/10/06 03:37:34;;;;;;;22.08;9.52;;;11.10;99.90;;;;;;4984818;28;20384;-75
2023/10/06 03:40:11;;;;;;;19.52;9.10;;;11.00;99.90;;;;;;4981378;28;20393;-75
2023/10/06 03:42:38;;;;;;;23.63;9.45;;;11.00;99.90;;;;;;4977843;28;20399;-75
2023/10/06 03:45:18;;;;;;;18.00;8.82;;;11.00;99.90;;;;;;4977980;28;20416;-74
2023/10/06 03:47:48;;;;;;;16.10;9.10;;;10.90;99.90;;;;;;4978194;28;20782;-74
2023/10/06 03:50:15;;;;;;;22.77;9.85;;;11.00;99.90;;;;;;4978036;28;20392;-74
2023/10/06 03:52:41;;;;;;;19.00;9.90;;;10.90;99.90;;;;;;4977037;28;21002;-75
2023/10/06 03:55:07;;;;;;;20.03;9.10;;;11.00;99.90;;;;;;4978141;28;20379;-75
2023/10/06 03:57:32;;;;;;;21.05;8.98;;;10.90;99.90;;;;;;4978130;28;20396;-74
2023/10/06 03:59:58;;;;;;;16.70;9.05;;;10.90;99.90;;;;;;4977786;28;20509;-74
2023/10/06 04:02:38;;;;;;;17.33;9.15;;;10.80;99.90;;;;;;4977980;28;20391;-74
2023/10/06 04:05:07;;;;;;;20.58;9.18;;;10.80;99.90;;;;;;4978504;28;20396;-74
2023/10/06 04:07:33;;;;;;;18.95;9.73;;;10.80;99.90;;;;;;4977646;28;20416;-74
2023/10/06 04:09:59;;;;;;;20.50;9.50;;;10.80;99.90;;;;;;4976158;28;20404;-74
2023/10/06 04:12:25;;;;;;;17.00;8.90;;;10.90;99.90;;;;;;4978678;28;20394;-74
2023/10/06 04:14:53;;;;;;;16.88;9.70;;;10.80;99.90;;;;;;4975898;28;20471;-74
2023/10/06 04:17:21;;;;;;;20.88;9.88;;;10.80;99.90;;;;;;4977172;28;20392;-73
2023/10/06 04:19:48;;;;;;;20.83;10.07;;;10.80;99.90;;;;;;4976095;28;20882;-74
2023/10/06 04:22:14;;;;;;;16.63;8.95;;;10.90;99.90;;;;;;4975691;28;20392;-73
2023/10/06 04:24:40;;;;;;;17.83;9.00;;;10.90;99.90;;;;;;4975514;28;20439;-74
2023/10/06 04:27:06;;;;;;;19.38;9.00;;;10.80;99.90;;;;;;4975795;28;20448;-75
2023/10/06 04:29:35;;;;;;;22.23;9.07;;;10.80;99.90;;;;;;4977862;28;20475;-74
2023/10/06 04:32:01;;;;;;;18.85;8.90;;;10.80;99.90;;;;;;4977071;28;20394;-75
2023/10/06 04:34:33;;;;;;;17.90;9.00;;;10.80;99.90;;;;;;4976076;28;20938;-75
2023/10/06 04:37:00;;;;;;;23.60;9.68;;;10.70;99.90;;;;;;4975177;28;20420;-75
2023/10/06 04:39:26;;;;;;;15.75;9.20;;;10.80;99.90;;;;;;4979766;28;20479;-75
2023/10/06 04:41:55;;;;;;;20.88;10.10;;;10.70;99.90;;;;;;4977868;28;20865;-75
2023/10/06 04:44:21;;;;;;;20.23;10.10;;;10.70;99.90;;;;;;4977839;28;20399;-74
2023/10/06 04:46:46;;;;;;;21.25;9.50;;;10.80;99.90;;;;;;4982989;28;20410;-73
2023/10/06 04:49:12;;;;;;;16.08;9.50;;;10.80;99.90;;;;;;4989770;28;20412;-74
2023/10/06 04:51:38;;;;;;;15.97;9.53;;;10.80;99.90;;;;;;4990990;28;20407;-74
2023/10/06 04:54:07;;;;;;;17.52;9.40;;;10.80;99.90;;;;;;4975774;28;20771;-74
2023/10/06 04:56:33;;;;;;;19.73;9.38;;;10.80;99.90;;;;;;4979063;28;20411;-74
2023/10/06 04:58:59;;;;;;;23.40;10.63;;;10.70;99.90;;;;;;4991915;28;20396;-74
2023/10/06 05:01:28;;;;;;;21.50;10.93;;;10.80;99.90;;;;;;4994387;28;20388;-74
2023/10/06 05:03:54;;;;;;;22.08;10.10;;;10.70;99.90;;;;;;4992296;28;20393;-73
2023/10/06 05:06:21;;;;;;;22.90;9.30;;;10.70;99.90;;;;;;4991553;28;20424;-75
2023/10/06 05:08:47;;;;;;;20.77;9.82;;;10.70;99.90;;;;;;4989922;28;20466;-74
2023/10/06 05:11:14;;;;;;;20.55;10.15;;;10.70;99.90;;;;;;4988514;28;20442;-75
2023/10/06 05:13:40;;;;;;;20.98;9.35;;;10.80;99.90;;;;;;4977126;28;20399;-74
2023/10/06 05:16:05;;;;;;;22.23;10.25;;;10.80;99.90;;;;;;4975979;28;20392;-75
2023/10/06 05:18:35;;;;;;;23.90;10.90;;;10.80;99.90;;;;;;4975453;28;20400;-74
2023/10/06 05:21:01;;;;;;;23.35;11.57;;;10.70;99.90;;;;;;4974990;28;20832;-74
2023/10/06 05:23:26;;;;;;;24.77;10.50;;;10.70;99.90;;;;;;4974798;28;20496;-72
2023/10/06 05:25:54;;;;;;;23.83;11.00;;;10.70;99.90;;;;;;4974667;28;20466;-74
2023/10/06 05:28:20;;;;;;;20.92;10.70;;;10.60;99.90;;;;;;4974692;28;20511;-75
2023/10/06 05:30:46;;;;;;;19.58;9.57;;;10.70;99.90;;;;;;4974105;28;20387;-75
2023/10/06 05:33:14;;;;;;;20.38;9.70;;;10.70;99.90;;;;;;4975558;28;20392;-75
2023/10/06 05:35:40;;;;;;;17.55;9.80;;;10.70;99.90;;;;;;4975129;28;20415;-74
2023/10/06 05:38:13;;;;;;;17.60;9.45;;;10.70;99.90;;;;;;4975004;28;20875;-74
2023/10/06 05:40:43;;;;;;;18.65;8.90;;;10.70;99.90;;;;;;4977186;28;20392;-75
2023/10/06 05:43:11;;;;;;;24.73;9.90;;;10.70;99.90;;;;;;4976704;28;20752;-76
2023/10/06 05:45:41;;;;;;;18.80;9.73;;;10.70;99.90;;;;;;4977604;28;20752;-75
2023/10/06 05:48:11;;;;;;;21.35;9.55;;;10.80;99.90;;;;;;4978097;28;20420;-74
2023/10/06 05:50:38;;;;;;;17.63;9.38;;;10.80;99.90;;;;;;4976978;28;20396;-75
2023/10/06 05:53:04;;;;;;;19.60;10.25;;;10.80;99.90;;;;;;4978603;28;20396;-73
2023/10/06 05:55:38;;;;;;;18.20;9.82;;;10.80;99.90;;;;;;4988786;28;20388;-74
2023/10/06 05:58:09;;;;;;;18.35;9.55;;;10.80;99.90;;;;;;4991107;28;20408;-75
2023/10/06 06:00:35;;;;;;;20.13;10.00;;;10.80;99.90;;;;;;4991952;28;20488;-75
2023/10/06 06:03:11;;;;;;;18.67;9.30;;;10.90;99.90;;;;;;4990083;28;20450;-75
2023/10/06 06:05:38;;;;;;;17.02;9.35;;;10.90;99.90;;;;;;4990449;28;20383;-74
2023/10/06 06:08:10;;;;;;;17.42;9.18;;;10.90;99.90;;;;;;4984171;28;20411;-76
2023/10/06 06:10:36;;;;;;;19.52;10.00;;;10.90;99.90;;;;;;4975668;28;20416;-75
2023/10/06 06:13:02;;;;;;;26.33;9.00;;;10.90;99.90;;;;;;4980256;28;20395;-74
2023/10/06 06:15:28;;;;;;;16.50;9.02;;;10.90;99.90;;;;;;4975150;28;20431;-76
2023/10/06 06:17:54;;;;;;;18.88;9.60;;;11.00;99.90;;;;;;4973638;28;20763;-74
2023/10/06 06:20:22;;;;;;;17.95;9.00;;;11.00;99.90;;;;;;4975925;28;20392;-74
2023/10/06 06:22:53;;;;;;;19.60;9.13;;;11.10;99.90;;;;;;4971974;28;20925;-74
2023/10/06 06:25:22;;;;;;;16.55;8.90;;;11.30;99.90;;;;;;4973138;28;20424;-74
2023/10/06 06:27:48;;;;;;;19.90;8.98;;;11.40;99.90;;;;;;4974127;28;20404;-73
2023/10/06 06:30:18;;;;;;;16.58;8.60;;;11.50;98.80;;;;;;4977243;28;20389;-73
2023/10/06 06:32:50;;;;;;;18.08;8.43;;;11.70;95.40;;;;;;4976444;28;20396;-73
2023/10/06 06:35:19;;;;;;;19.55;7.78;;;11.90;91.70;;;;;;4984882;28;20381;-74
2023/10/06 06:37:51;;;;;;;18.42;8.10;;;12.00;86.60;;;;;;4993315;28;20400;-73
2023/10/06 06:40:19;;;;;;;24.02;8.65;;;12.20;86.40;;;;;;4994781;28;20381;-73
2023/10/06 06:42:45;;;;;;;19.67;7.82;;;12.40;80.80;;;;;;4994415;28;20384;-75
2023/10/06 06:45:13;;;;;;;18.75;8.18;;;12.60;81.60;;;;;;4992641;28;20400;-74
2023/10/06 06:47:41;;;;;;;25.63;7.78;;;12.70;74.80;;;;;;4991386;28;20439;-74
2023/10/06 06:50:09;;;;;;;15.77;7.15;;;12.80;75.10;;;;;;4975457;28;20381;-75
2023/10/06 06:52:35;;;;;;;21.00;8.23;;;13.00;71.70;;;;;;4976454;28;20879;-75
2023/10/06 06:55:01;;;;;;;13.63;7.18;;;13.10;71.30;;;;;;4983017;28;20396;-74
2023/10/06 06:57:26;;;;;;;15.15;7.50;;;13.20;68.20;;;;;;4985417;28;20775;-74
2023/10/06 06:59:52;;;;;;;17.00;7.50;;;13.20;67.00;;;;;;4981281;28;20407;-76
2023/10/06 07:02:18;;;;;;;21.33;8.40;;;13.20;67.70;;;;;;4974893;28;20451;-75
2023/10/06 07:04:44;;;;;;;17.05;7.75;;;13.20;67.70;;;;;;4988025;28;20447;-74
2023/10/06 07:07:10;;;;;;;20.27;8.30;;;13.30;67.80;;;;;;4983396;28;20443;-74
2023/10/06 07:09:35;;;;;;;20.63;7.53;;;13.30;67.30;;;;;;4976411;28;20437;-75
2023/10/06 07:12:01;;;;;;;14.80;7.45;;;13.30;67.80;;;;;;4972535;28;20424;-74
2023/10/06 07:14:27;;;;;;;18.33;7.00;;;13.30;67.60;;;;;;4972339;28;20424;-74
2023/10/06 07:16:53;;;;;;;16.95;7.60;;;13.30;67.60;;;;;;4975063;28;20971;-74
2023/10/06 07:19:19;;;;;;;15.15;7.40;;;13.30;66.50;;;;;;4970468;28;20478;-75
2023/10/06 07:21:44;;;;;;;13.13;7.37;;;13.40;67.40;;;;;;4970083;28;20895;-75
2023/10/06 07:24:10;;;;;;;15.00;7.53;;;13.40;67.40;;;;;;4970770;28;20382;-75
2023/10/06 07:26:36;;;;;;;17.92;7.72;;;13.50;66.30;;;;;;4968766;28;20422;-75
2023/10/06 07:29:05;;;;;;;18.10;7.53;;;13.50;64.80;;;;;;4971352;28;20906;-75
2023/10/06 07:31:31;;;;;;;17.40;7.03;;;13.60;63.40;;;;;;4971935;28;20392;-76
2023/10/06 07:34:02;;;;;;;18.80;7.03;;;13.70;62.50;;;;;;4967732;28;20753;-74
2023/10/06 07:36:29;;;;;;;23.75;8.48;;;13.80;62.70;;;;;;4968894;28;20404;-74
2023/10/06 07:38:55;;;;;;;20.48;8.05;;;13.80;61.30;;;;;;4971830;28;20899;-75
2023/10/06 07:41:25;;;;;;;22.27;7.82;;;13.90;59.70;;;;;;4971798;28;20408;-75
2023/10/06 07:43:51;;;;;;;17.77;7.90;;;14.00;60.10;;;;;;4973389;28;20490;-75
2023/10/06 07:46:17;;;;;;;17.48;8.10;;;14.00;59.70;;;;;;4982945;28;20445;-74
2023/10/06 07:48:45;;;;;;;19.30;7.80;;;14.00;58.80;;;;;;4993832;28;20398;-74
2023/10/06 07:51:13;;;;;;;18.40;8.00;;;14.10;58.50;;;;;;4991434;28;20430;-74
2023/10/06 07:53:39;;;;;;;17.08;6.38;;;14.20;57.40;;;;;;4989723;28;20418;-74
2023/10/06 07:56:09;;;;;;;18.50;7.10;;;14.30;55.60;;;;;;4989840;28;20406;-74
2023/10/06 07:58:38;;;;;;;16.13;7.53;;;14.30;56.00;;;;;;4991174;28;20390;-74
2023/10/06 08:01:07;;;;;;;24.65;7.75;;;14.30;55.90;;;;;;4990292;28;20402;-74
2023/10/06 08:03:38;;;;;;;18.27;7.80;;;14.30;56.60;;;;;;4980691;28;20491;-75
2023/10/06 08:06:10;;;;;;;21.60;7.75;;;14.30;57.10;;;;;;4970899;28;20418;-74
2023/10/06 08:08:37;;;;;;;19.27;7.80;;;14.20;56.40;;;;;;4971988;28;20441;-74
2023/10/06 08:11:03;;;;;;;17.95;7.43;;;14.30;57.80;;;;;;4974991;28;20408;-75
2023/10/06 08:13:35;;;;;;;17.95;7.05;;;14.30;55.10;;;;;;4974431;28;20558;-74
2023/10/06 08:16:02;;;;;;;15.60;6.65;;;14.30;55.80;;;;;;4970046;28;20740;-74
2023/10/06 08:18:29;;;;;;;14.40;6.93;;;14.30;54.90;;;;;;4958638;28;20417;-75
2023/10/06 08:21:00;;;;;;;9.88;5.60;;;14.50;53.80;;;;;;4950500;28;20436;-74
2023/10/06 08:23:27;;;;;;;15.20;6.93;;;14.60;53.10;;;;;;4955667;28;20490;-74
2023/10/06 08:25:56;;;;;;;12.70;6.63;;;14.70;52.90;;;;;;4969667;28;20458;-74
2023/10/06 08:28:23;;;;;;;19.45;7.00;;;14.80;52.10;;;;;;4968953;28;20451;-75
2023/10/06 08:30:49;;;;;;;15.68;6.40;;;14.90;50.60;;;;;;4970845;28;20408;-74
2023/10/06 08:33:14;;;;;;;13.77;7.05;;;15.00;50.80;;;;;;4987731;28;20447;-75
2023/10/06 08:35:44;;;;;;;13.87;6.63;;;15.00;50.20;;;;;;4995406;28;20398;-75
2023/10/06 08:38:10;;;;;;;17.70;6.35;;;15.20;49.00;;;;;;4996378;28;20410;-75
2023/10/06 08:40:42;;;;;;;19.42;6.35;;;15.30;49.20;;;;;;4985904;28;20388;-74
2023/10/06 08:43:08;;;;;;;10.80;6.03;;;15.40;48.10;;;;;;4985567;28;20410;-74
2023/10/06 08:45:41;;;;;;;16.85;6.78;;;15.60;47.50;;;;;;4983043;28;20444;-74
2023/10/06 08:48:12;;;;;;;12.73;5.90;;;15.70;46.10;;;;;;4984039;28;20416;-74
2023/10/06 08:50:39;;;;;;;13.20;5.40;;;15.80;46.30;;;;;;4987366;28;20415;-75
2023/10/06 08:53:07;;;;;;;18.30;6.32;;;15.90;46.50;;;;;;4987350;28;20443;-73
2023/10/06 08:55:36;;;;;;;12.77;6.20;;;16.00;45.50;;;;;;4988247;28;20388;-72
2023/10/06 08:58:01;;;;;;;11.68;5.72;;;16.10;44.50;;;;;;4990724;28;20392;-73
2023/10/06 09:00:34;;;;;;;17.10;5.53;;;16.20;45.20;;;;;;4991296;28;20410;-76
2023/10/06 09:03:07;;;;;;;15.65;6.50;;;16.30;43.30;;;;;;4991613;28;20608;-73
2023/10/06 09:05:37;;;;;;;16.00;5.45;;;16.40;42.30;;;;;;5006737;28;20406;-72
2023/10/06 09:08:05;;;;;;;15.27;5.50;;;16.60;40.00;;;;;;4987579;28;20911;-74
2023/10/06 09:10:42;;;;;;;13.97;4.70;;;16.70;39.80;;;;;;4976888;28;20431;-75
2023/10/06 09:13:11;;;;;;;11.40;4.53;;;16.90;38.40;;;;;;4976697;28;20443;-75
2023/10/06 09:15:40;;;;;;;15.63;5.10;;;17.10;37.70;;;;;;4975592;28;20394;-75
2023/10/06 09:18:23;;;;;;;18.92;4.88;;;17.20;37.40;;;;;;4975325;28;20805;-75
2023/10/06 09:20:49;;;;;;;18.38;5.90;;;17.40;35.90;;;;;;4978386;28;20883;-74
2023/10/06 09:23:32;;;;;;;13.15;4.60;;;17.50;35.20;;;;;;4974627;28;20875;-76
2023/10/06 09:26:00;;;;;;;17.02;4.95;;;17.60;34.60;;;;;;4975574;28;20392;-76
2023/10/06 09:28:26;;;;;;;15.25;5.10;;;17.60;34.70;;;;;;4975740;28;20396;-75
2023/10/06 09:31:05;;;;;;;14.85;4.97;;;17.60;34.80;;;;;;4974632;28;20396;-74
2023/10/06 09:33:37;;;;;;;14.98;4.72;;;17.80;34.30;;;;;;4974828;28;20757;-74
2023/10/06 09:36:08;;;;;;;13.10;4.60;;;17.90;34.80;;;;;;4963963;28;20803;-75
2023/10/06 09:38:39;;;;;;;9.35;4.55;;;18.20;34.30;;;;;;4974570;28;20386;-75
2023/10/06 09:41:07;;;;;;;13.60;5.00;;;18.30;32.70;;;;;;4974217;28;20384;-75
2023/10/06 09:43:38;;;;;;;14.95;4.78;;;18.30;32.70;;;;;;4970087;28;20401;-75
2023/10/06 09:46:06;;;;;;;15.00;4.07;;;18.40;32.90;;;;;;4975809;28;21038;-76
2023/10/06 09:48:36;;;;;;;18.55;5.03;;;18.40;30.70;;;;;;4979547;28;20415;-75
2023/10/06 09:51:08;;;;;;;12.27;3.90;;;18.50;30.80;;;;;;4979075;28;20380;-74
2023/10/06 09:53:38;;;;;;;12.85;4.00;;;18.60;30.60;;;;;;4976933;28;20391;-74
2023/10/06 09:56:11;;;;;;;14.93;4.63;;;18.80;29.30;;;;;;4973638;28;20450;-74
2023/10/06 09:58:38;;;;;;;18.70;4.60;;;19.00;29.20;;;;;;4972999;28;20398;-75
2023/10/06 10:01:05;;;;;;;8.88;3.63;;;19.10;28.90;;;;;;4973425;28;20924;-75
2023/10/06 10:03:34;;;;;;;10.90;4.90;;;19.20;27.70;;;;;;4973797;28;20898;-73
2023/10/06 10:06:04;;;;;;;9.48;4.45;;;19.30;27.70;;;;;;4973325;28;20387;-74
2023/10/06 10:08:32;;;;;;;13.45;4.00;;;19.50;27.60;;;;;;4972897;28;20767;-74
2023/10/06 10:11:01;;;;;;;13.73;4.63;;;19.70;27.00;;;;;;4973323;28;20483;-74
2023/10/06 10:14:06;;;;;;;12.40;4.38;;;19.70;25.80;;;;;;4973309;28;20388;-73
2023/10/06 10:17:13;;;;;;;9.43;4.80;;;19.60;26.40;;;;;;4953749;28;20531;-75
2023/10/06 10:19:43;;;;;;;15.40;4.40;;;19.50;27.10;;;;;;4952935;28;20394;-74
2023/10/06 10:22:13;;;;;;;17.10;4.80;;;19.50;27.20;;;;;;4954491;28;20386;-74
2023/10/06 10:24:39;;;;;;;16.13;4.47;;;19.40;27.10;;;;;;4972371;28;20391;-73
2023/10/06 10:27:14;;;;;;;15.13;4.50;;;19.40;27.70;;;;;;4972271;28;20404;-74
2023/10/06 10:29:41;;;;;;;15.15;4.60;;;19.50;27.20;;;;;;4971772;28;20869;-75
2023/10/06 10:32:14;;;;;;;13.25;4.40;;;19.60;26.70;;;;;;4971896;28;20400;-74
2023/10/06 10:35:05;;;;;;;14.63;4.80;;;19.60;26.80;;;;;;4972907;28;20573;-75
2023/10/06 10:37:31;;;;;;;14.45;4.80;;;19.70;26.30;;;;;;4973037;28;20399;-75
2023/10/06 10:39:56;;;;;;;10.97;4.87;;;19.70;26.10;;;;;;4972853;28;20464;-75
2023/10/06 10:42:36;;;;;;;14.45;4.22;;;19.70;25.90;;;;;;4986606;28;20436;-74
2023/10/06 10:45:38;;;;;;;15.48;4.57;;;19.60;26.00;;;;;;4972183;28;20380;-74
2023/10/06 10:48:14;;;;;;;10.38;4.10;;;19.60;26.50;;;;;;4972998;28;20412;-74
2023/10/06 10:51:10;;;;;;;14.10;4.97;;;19.60;26.50;;;;;;4953640;28;20410;-74
2023/10/06 10:53:45;;;;;;;11.00;4.40;;;19.50;26.60;;;;;;4951169;28;20823;-73
2023/10/06 10:56:30;;;;;;;8.65;4.10;;;19.60;27.00;;;;;;4954418;28;20405;-74
2023/10/06 10:58:56;;;;;;;15.03;4.47;;;19.60;26.40;;;;;;4948886;28;20555;-74
2023/10/06 11:01:38;;;;;;;14.48;4.60;;;19.70;26.20;;;;;;4954052;28;20423;-74
2023/10/06 11:04:12;;;;;;;14.98;4.93;;;19.70;26.60;;;;;;4974219;28;20427;-75
2023/10/06 11:06:45;;;;;;;13.52;5.03;;;19.70;26.70;;;;;;4970014;28;20408;-75
2023/10/06 11:09:12;;;;;;;11.02;4.35;;;19.70;26.50;;;;;;4969785;28;20463;-74
2023/10/06 11:11:41;;;;;;;19.50;4.50;;;19.60;26.80;;;;;;4975584;28;20527;-75
2023/10/06 11:14:07;;;;;;;10.80;3.75;;;19.60;26.90;;;;;;4974413;28;20865;-74
2023/10/06 11:16:35;;;;;;;9.97;4.00;;;19.70;25.80;;;;;;4969992;28;20430;-76
2023/10/06 11:19:03;;;;;;;15.23;4.13;;;19.60;25.80;;;;;;4970036;28;20464;-75
2023/10/06 11:21:31;;;;;;;13.65;4.28;;;19.60;26.10;;;;;;4970996;28;20392;-73
2023/10/06 11:23:58;;;;;;;13.57;4.20;;;19.60;25.50;;;;;;4970208;28;20704;-74
2023/10/06 11:26:33;;;;;;;11.52;4.18;;;19.70;25.60;;;;;;4970270;28;20412;-74
2023/10/06 11:29:02;;;;;;;21.90;4.78;;;19.80;25.00;;;;;;4970177;28;20596;-73
2023/10/06 11:31:28;;;;;;;11.48;4.30;;;19.80;25.50;;;;;;4984917;28;20410;-74
2023/10/06 11:33:55;;;;;;;13.85;4.65;;;19.90;25.20;;;;;;4985064;28;20400;-74
2023/10/06 11:36:21;;;;;;;15.60;4.70;;;20.00;25.40;;;;;;4970375;28;20455;-75
2023/10/06 11:38:48;;;;;;;8.20;3.60;;;20.30;24.80;;;;;;4969683;28;20408;-73
2023/10/06 11:41:23;;;;;;;13.65;4.90;;;20.50;24.10;;;;;;4969538;28;20404;-74
2023/10/06 11:43:55;;;;;;;13.70;4.65;;;20.50;23.60;;;;;;4971590;28;20436;-74
2023/10/06 11:46:21;;;;;;;14.30;4.32;;;20.40;23.80;;;;;;4984027;28;21001;-74
2023/10/06 11:48:47;;;;;;;12.53;4.50;;;20.40;23.60;;;;;;4976017;28;20447;-75
2023/10/06 11:51:13;;;;;;;14.02;4.28;;;20.40;23.40;;;;;;4969256;28;20499;-75
2023/10/06 11:53:40;;;;;;;9.63;4.20;;;20.30;24.40;;;;;;4969753;28;20550;-74
2023/10/06 11:56:07;;;;;;;11.35;4.15;;;20.20;24.40;;;;;;4960438;28;20440;-74
2023/10/06 11:58:35;;;;;;;19.67;4.70;;;20.40;24.40;;;;;;4989152;28;20534;-75
2023/10/06 12:01:05;;;;;;;13.20;4.60;;;20.40;24.10;;;;;;4972735;28;20392;-75
2023/10/06 12:03:42;;;;;;;14.15;4.60;;;20.30;25.10;;;;;;4972436;28;20435;-74
2023/10/06 12:06:11;;;;;;;11.70;4.50;;;20.30;24.70;;;;;;4971711;28;20403;-75
2023/10/06 12:08:52;;;;;;;18.67;4.78;;;20.30;25.30;;;;;;4984649;28;20497;-75
2023/10/06 12:11:19;;;;;;;10.37;4.47;;;20.40;24.60;;;;;;4986101;28;20450;-75
2023/10/06 12:13:45;;;;;;;14.95;5.40;;;20.50;24.80;;;;;;4976122;28;20792;-75
2023/10/06 12:16:14;;;;;;;14.50;5.32;;;20.50;24.60;;;;;;4974989;28;20426;-75
2023/10/06 12:18:44;;;;;;;17.10;4.80;;;20.30;24.70;;;;;;4975773;28;20391;-75
2023/10/06 12:21:11;;;;;;;20.02;5.40;;;20.30;24.70;;;;;;4975090;28;20395;-74
2023/10/06 12:23:42;;;;;;;13.38;5.40;;;20.20;25.70;;;;;;4978180;28;20395;-74
2023/10/06 12:26:08;;;;;;;15.13;5.30;;;20.20;24.90;;;;;;4977572;28;20476;-75
2023/10/06 12:28:33;;;;;;;13.60;5.40;;;20.40;25.50;;;;;;4977855;28;20396;-75
2023/10/06 12:31:01;;;;;;;21.57;4.90;;;20.50;24.80;;;;;;4989413;28;20881;-73
2023/10/06 12:33:27;;;;;;;10.65;5.00;;;20.80;24.50;;;;;;4978026;28;20419;-75
2023/10/06 12:35:52;;;;;;;13.40;4.87;;;20.90;23.50;;;;;;4977135;28;20411;-75
2023/10/06 12:38:19;;;;;;;14.77;4.70;;;21.10;22.70;;;;;;4981979;28;20398;-75
2023/10/06 12:40:47;;;;;;;22.42;5.40;;;21.00;23.00;;;;;;4990744;28;20428;-75
2023/10/06 12:43:19;;;;;;;16.10;4.70;;;21.00;23.20;;;;;;4976630;28;20400;-75
2023/10/06 12:45:45;;;;;;;11.50;4.85;;;21.10;22.70;;;;;;4973910;28;20412;-75
2023/10/06 12:48:10;;;;;;;14.35;5.10;;;21.20;22.30;;;;;;4974554;28;20412;-75
2023/10/06 12:50:40;;;;;;;21.73;5.20;;;21.10;22.70;;;;;;4975948;28;20843;-75
2023/10/06 12:53:11;;;;;;;12.05;4.20;;;21.00;23.20;;;;;;4986498;28;20395;-75
2023/10/06 12:55:41;;;;;;;14.00;5.30;;;20.90;23.60;;;;;;4979337;28;20450;-75